createdAt,value
2019-02-17T00:00:19.672Z,7.32
2019-02-17T00:01:19.661Z,7.15
2019-02-17T00:02:19.655Z,7.16
2019-02-17T00:03:19.639Z,7.13
2019-02-17T00:04:19.639Z,7.17
2019-02-17T00:05:19.617Z,7.16
2019-02-17T00:06:19.612Z,7.20
2019-02-17T00:07:19.591Z,7.13
2019-02-17T00:08:19.615Z,7.13
2019-02-17T00:09:19.570Z,7.13
2019-02-17T00:10:19.559Z,7.15
2019-02-17T00:11:19.554Z,7.13
2019-02-17T00:12:19.541Z,7.09
2019-02-17T00:13:19.531Z,7.09
2019-02-17T00:14:19.531Z,7.07
2019-02-17T00:15:19.526Z,7.07
2019-02-17T00:16:19.498Z,7.02
2019-02-17T00:17:19.485Z,6.95
2019-02-17T00:18:19.472Z,6.97
2019-02-17T00:19:19.460Z,6.90
2019-02-17T00:20:19.462Z,6.91
2019-02-17T00:21:19.442Z,6.87
2019-02-17T00:22:19.426Z,6.89
2019-02-17T00:23:19.417Z,6.79
2019-02-17T00:24:19.452Z,6.72
2019-02-17T00:25:20.519Z,6.77
2019-02-17T00:26:19.399Z,6.77
2019-02-17T00:27:19.376Z,6.72
2019-02-17T00:28:19.363Z,6.79
2019-02-17T00:29:19.356Z,6.71
2019-02-17T00:30:19.428Z,6.79
2019-02-17T00:31:19.333Z,6.79
2019-02-17T00:32:19.319Z,6.73
2019-02-17T00:33:19.360Z,6.66
2019-02-17T00:34:19.321Z,6.63
2019-02-17T00:35:19.289Z,6.68
2019-02-17T00:36:19.292Z,6.65
2019-02-17T00:37:19.338Z,6.65
2019-02-17T00:38:19.253Z,6.68
2019-02-17T00:39:19.246Z,6.68
2019-02-17T00:40:19.237Z,6.63
2019-02-17T00:41:19.260Z,6.58
2019-02-17T00:42:19.209Z,6.61
2019-02-17T00:43:19.204Z,6.63
2019-02-17T00:44:19.189Z,6.46
2019-02-17T00:45:19.177Z,6.46
2019-02-17T00:46:19.168Z,6.48
2019-02-17T00:47:19.176Z,6.48
2019-02-17T00:48:19.148Z,6.53
2019-02-17T00:49:19.132Z,6.46
2019-02-17T00:50:19.127Z,6.50
2019-02-17T00:51:19.113Z,6.44
2019-02-17T00:52:19.104Z,6.48
2019-02-17T00:53:19.143Z,6.43
2019-02-17T00:54:19.084Z,6.38
2019-02-17T00:55:19.072Z,6.36
2019-02-17T00:56:19.057Z,6.40
2019-02-17T00:57:19.050Z,6.35
2019-02-17T00:58:19.056Z,6.30
2019-02-17T00:59:19.080Z,6.29
2019-02-17T01:00:19.018Z,6.33
2019-02-17T01:01:19.007Z,6.30
2019-02-17T01:02:19.001Z,6.25
2019-02-17T01:03:18.985Z,6.28
2019-02-17T01:04:18.973Z,6.22
2019-02-17T01:05:18.999Z,6.13
2019-02-17T01:06:18.954Z,6.13
2019-02-17T01:07:18.944Z,6.14
2019-02-17T01:08:18.931Z,6.09
2019-02-17T01:09:18.919Z,6.16
2019-02-17T01:10:18.936Z,6.11
2019-02-17T01:11:18.896Z,6.10
2019-02-17T01:12:18.889Z,6.07
2019-02-17T01:13:18.876Z,6.10
2019-02-17T01:14:18.902Z,6.06
2019-02-17T01:15:18.928Z,6.06
2019-02-17T01:16:18.851Z,6.07
2019-02-17T01:17:18.832Z,6.00
2019-02-17T01:18:18.819Z,5.98
2019-02-17T01:19:18.811Z,5.96
2019-02-17T01:20:18.798Z,5.98
2019-02-17T01:21:18.808Z,5.96
2019-02-17T01:22:18.779Z,5.96
2019-02-17T01:23:18.767Z,5.88
2019-02-17T01:24:18.759Z,5.82
2019-02-17T01:25:18.748Z,5.88
2019-02-17T01:26:18.747Z,5.74
2019-02-17T01:27:18.726Z,5.89
2019-02-17T01:28:18.760Z,5.86
2019-02-17T01:29:20.737Z,5.75
2019-02-17T01:30:18.691Z,5.75
2019-02-17T01:31:18.731Z,5.81
2019-02-17T01:32:18.687Z,5.67
2019-02-17T01:33:18.661Z,5.75
2019-02-17T01:34:18.645Z,5.74
2019-02-17T01:35:18.634Z,5.71
2019-02-17T01:36:18.622Z,5.59
2019-02-17T01:37:18.662Z,5.68
2019-02-17T01:38:18.600Z,5.66
2019-02-17T01:39:18.596Z,5.67
2019-02-17T01:40:18.602Z,5.70
2019-02-17T01:41:18.568Z,5.59
2019-02-17T01:42:18.560Z,5.70
2019-02-17T01:43:18.562Z,5.70
2019-02-17T01:44:18.540Z,5.59
2019-02-17T01:45:18.531Z,5.57
2019-02-17T01:46:18.550Z,5.53
2019-02-17T01:47:18.515Z,5.59
2019-02-17T01:48:18.514Z,5.56
2019-02-17T01:49:18.483Z,5.53
2019-02-17T01:50:18.485Z,5.48
2019-02-17T01:51:18.463Z,5.48
2019-02-17T01:52:18.483Z,5.48
2019-02-17T01:53:18.441Z,5.52
2019-02-17T01:54:18.427Z,5.48
2019-02-17T01:55:18.415Z,5.45
2019-02-17T01:56:18.406Z,5.43
2019-02-17T01:57:18.430Z,5.45
2019-02-17T01:58:18.391Z,5.45
2019-02-17T01:59:18.367Z,5.38
2019-02-17T02:00:18.359Z,5.38
2019-02-17T02:01:18.351Z,5.35
2019-02-17T02:02:18.338Z,5.32
2019-02-17T02:03:18.361Z,5.31
2019-02-17T02:04:18.317Z,5.30
2019-02-17T02:05:18.306Z,5.23
2019-02-17T02:06:18.294Z,5.22
2019-02-17T02:07:18.276Z,5.22
2019-02-17T02:08:18.342Z,5.17
2019-02-17T02:09:18.263Z,5.19
2019-02-17T02:10:18.245Z,5.19
2019-02-17T02:11:18.240Z,5.17
2019-02-17T02:12:18.226Z,5.10
2019-02-17T02:13:18.215Z,5.17
2019-02-17T02:14:18.226Z,5.17
2019-02-17T02:15:18.197Z,5.13
2019-02-17T02:16:18.177Z,5.10
2019-02-17T02:17:18.170Z,5.09
2019-02-17T02:18:18.156Z,4.99
2019-02-17T02:19:18.149Z,5.04
2019-02-17T02:20:18.146Z,5.02
2019-02-17T02:21:18.129Z,4.95
2019-02-17T02:22:18.112Z,5.05
2019-02-17T02:23:18.105Z,4.95
2019-02-17T02:24:18.088Z,4.99
2019-02-17T02:25:18.098Z,4.95
2019-02-17T02:26:18.075Z,4.80
2019-02-17T02:27:18.074Z,4.88
2019-02-17T02:28:18.043Z,4.84
2019-02-17T02:29:18.034Z,4.84
2019-02-17T02:30:18.040Z,4.79
2019-02-17T02:31:18.027Z,4.83
2019-02-17T02:32:18.000Z,4.75
2019-02-17T02:33:17.994Z,4.72
2019-02-17T02:34:17.983Z,4.80
2019-02-17T02:35:17.972Z,4.76
2019-02-17T02:36:17.994Z,4.77
2019-02-17T02:37:17.949Z,4.79
2019-02-17T02:38:17.940Z,4.79
2019-02-17T02:39:17.936Z,4.77
2019-02-17T02:40:17.917Z,4.80
2019-02-17T02:41:17.928Z,4.77
2019-02-17T02:42:17.895Z,4.75
2019-02-17T02:43:17.893Z,4.76
2019-02-17T02:44:17.878Z,4.80
2019-02-17T02:45:17.865Z,4.69
2019-02-17T02:46:17.890Z,4.80
2019-02-17T02:47:17.840Z,4.73
2019-02-17T02:48:17.824Z,4.83
2019-02-17T02:49:17.819Z,4.76
2019-02-17T02:50:17.804Z,4.76
2019-02-17T02:51:17.801Z,4.77
2019-02-17T02:52:17.808Z,4.76
2019-02-17T02:53:17.769Z,4.70
2019-02-17T02:54:17.758Z,4.75
2019-02-17T02:55:17.746Z,4.65
2019-02-17T02:56:17.735Z,4.69
2019-02-17T02:57:17.761Z,4.59
2019-02-17T02:58:17.721Z,4.69
2019-02-17T02:59:17.703Z,4.67
2019-02-17T03:00:17.699Z,4.75
2019-02-17T03:01:17.686Z,4.73
2019-02-17T03:02:17.687Z,4.73
2019-02-17T03:03:17.697Z,4.62
2019-02-17T03:04:17.650Z,4.73
2019-02-17T03:05:17.647Z,4.73
2019-02-17T03:06:17.629Z,4.67
2019-02-17T03:07:17.620Z,4.69
2019-02-17T03:08:17.645Z,4.67
2019-02-17T03:09:17.599Z,4.69
2019-02-17T03:10:17.592Z,4.64
2019-02-17T03:11:17.579Z,4.65
2019-02-17T03:12:17.563Z,4.58
2019-02-17T03:13:17.590Z,4.61
2019-02-17T03:14:17.547Z,4.62
2019-02-17T03:15:17.536Z,4.62
2019-02-17T03:16:17.520Z,4.62
2019-02-17T03:17:17.536Z,4.62
2019-02-17T03:18:17.500Z,4.62
2019-02-17T03:19:17.512Z,4.55
2019-02-17T03:20:17.474Z,4.57
2019-02-17T03:21:17.465Z,4.61
2019-02-17T03:22:17.457Z,4.62
2019-02-17T03:23:17.456Z,4.64
2019-02-17T03:24:17.468Z,4.55
2019-02-17T03:25:17.423Z,4.65
2019-02-17T03:26:17.435Z,4.55
2019-02-17T03:27:17.404Z,4.55
2019-02-17T03:28:17.393Z,4.54
2019-02-17T03:29:17.379Z,4.57
2019-02-17T03:30:17.447Z,4.52
2019-02-17T03:31:17.519Z,4.55
2019-02-17T03:32:17.349Z,4.57
2019-02-17T03:33:17.337Z,4.52
2019-02-17T03:34:17.322Z,4.55
2019-02-17T03:35:17.318Z,4.51
2019-02-17T03:36:17.322Z,4.55
2019-02-17T03:37:17.296Z,4.52
2019-02-17T03:38:17.282Z,4.51
2019-02-17T03:39:17.268Z,4.52
2019-02-17T03:40:17.268Z,4.52
2019-02-17T03:41:17.287Z,4.55
2019-02-17T03:42:17.244Z,4.62
2019-02-17T03:43:17.231Z,4.54
2019-02-17T03:44:17.217Z,4.58
2019-02-17T03:45:17.205Z,4.52
2019-02-17T03:46:17.234Z,4.57
2019-02-17T03:47:17.188Z,4.57
2019-02-17T03:48:17.179Z,4.55
2019-02-17T03:49:17.170Z,4.55
2019-02-17T03:50:17.156Z,4.58
2019-02-17T03:51:17.144Z,4.42
2019-02-17T03:52:17.155Z,4.46
2019-02-17T03:53:17.125Z,4.43
2019-02-17T03:54:17.116Z,4.46
2019-02-17T03:55:17.100Z,4.52
2019-02-17T03:56:17.089Z,4.46
2019-02-17T03:57:17.101Z,4.50
2019-02-17T03:58:17.065Z,4.40
2019-02-17T03:59:17.057Z,4.44
2019-02-17T04:00:17.635Z,4.51
2019-02-17T04:01:17.033Z,4.40
2019-02-17T04:02:17.074Z,4.47
2019-02-17T04:03:17.011Z,4.39
2019-02-17T04:04:17.006Z,4.37
2019-02-17T04:05:16.997Z,4.36
2019-02-17T04:06:16.977Z,4.44
2019-02-17T04:07:16.972Z,4.39
2019-02-17T04:08:16.981Z,4.37
2019-02-17T04:09:16.993Z,4.37
2019-02-17T04:10:16.940Z,4.44
2019-02-17T04:11:16.935Z,4.44
2019-02-17T04:12:16.914Z,4.44
2019-02-17T04:13:16.913Z,4.37
2019-02-17T04:14:16.891Z,4.34
2019-02-17T04:15:16.885Z,4.37
2019-02-17T04:16:16.870Z,4.36
2019-02-17T04:17:16.868Z,4.37
2019-02-17T04:18:16.887Z,4.39
2019-02-17T04:19:16.913Z,4.37
2019-02-17T04:20:16.833Z,4.43
2019-02-17T04:21:16.822Z,4.34
2019-02-17T04:22:16.810Z,4.43
2019-02-17T04:23:16.795Z,4.40
2019-02-17T04:24:16.790Z,4.36
2019-02-17T04:25:16.813Z,4.42
2019-02-17T04:26:16.769Z,4.52
2019-02-17T04:27:16.768Z,4.37
2019-02-17T04:28:16.748Z,4.37
2019-02-17T04:29:16.736Z,4.46
2019-02-17T04:30:28.196Z,4.43
2019-02-17T04:31:17.749Z,4.32
2019-02-17T04:32:16.705Z,4.32
2019-02-17T04:33:16.700Z,4.29
2019-02-17T04:34:16.681Z,4.28
2019-02-17T04:35:16.666Z,4.24
2019-02-17T04:36:16.654Z,4.25
2019-02-17T04:37:16.648Z,4.22
2019-02-17T04:38:16.634Z,4.29
2019-02-17T04:39:16.659Z,4.29
2019-02-17T04:40:16.617Z,4.26
2019-02-17T04:41:16.679Z,4.25
2019-02-17T04:42:16.589Z,4.24
2019-02-17T04:43:16.588Z,4.22
2019-02-17T04:44:16.569Z,4.22
2019-02-17T04:45:16.563Z,4.19
2019-02-17T04:46:16.551Z,4.15
2019-02-17T04:47:16.576Z,4.16
2019-02-17T04:48:16.534Z,4.19
2019-02-17T04:49:16.654Z,4.19
2019-02-17T04:50:16.509Z,4.21
2019-02-17T04:51:16.517Z,4.24
2019-02-17T04:52:16.484Z,4.19
2019-02-17T04:53:16.481Z,4.19
2019-02-17T04:54:16.460Z,4.19
2019-02-17T04:55:16.452Z,4.19
2019-02-17T04:56:16.444Z,4.15
2019-02-17T04:57:16.468Z,4.12
2019-02-17T04:58:16.419Z,4.18
2019-02-17T04:59:16.409Z,4.18
2019-02-17T05:00:16.403Z,4.15
2019-02-17T05:01:16.393Z,4.08
2019-02-17T05:02:16.446Z,4.12
2019-02-17T05:03:16.363Z,4.18
2019-02-17T05:04:16.358Z,4.10
2019-02-17T05:05:16.351Z,4.07
2019-02-17T05:06:16.343Z,4.12
2019-02-17T05:07:16.327Z,4.08
2019-02-17T05:08:16.352Z,4.18
2019-02-17T05:09:16.315Z,4.07
2019-02-17T05:10:16.291Z,4.07
2019-02-17T05:11:16.276Z,4.07
2019-02-17T05:12:16.266Z,4.08
2019-02-17T05:13:16.284Z,4.15
2019-02-17T05:14:16.275Z,4.14
2019-02-17T05:15:16.241Z,4.07
2019-02-17T05:16:16.239Z,4.08
2019-02-17T05:17:16.214Z,4.15
2019-02-17T05:18:16.210Z,4.10
2019-02-17T05:19:16.292Z,4.12
2019-02-17T05:20:16.219Z,4.10
2019-02-17T05:21:16.179Z,4.08
2019-02-17T05:22:16.164Z,4.04
2019-02-17T05:23:16.159Z,4.01
2019-02-17T05:24:16.161Z,4.06
2019-02-17T05:25:16.204Z,3.98
2019-02-17T05:26:16.122Z,3.98
2019-02-17T05:27:16.109Z,4.04
2019-02-17T05:28:16.100Z,3.97
2019-02-17T05:29:16.090Z,4.01
2019-02-17T05:30:16.078Z,4.03
2019-02-17T05:31:16.093Z,4.00
2019-02-17T05:32:16.052Z,4.03
2019-02-17T05:33:16.050Z,4.00
2019-02-17T05:34:16.034Z,4.01
2019-02-17T05:35:16.020Z,4.01
2019-02-17T05:36:16.047Z,3.97
2019-02-17T05:37:16.030Z,4.00
2019-02-17T05:38:15.989Z,4.03
2019-02-17T05:39:15.976Z,4.03
2019-02-17T05:40:15.971Z,4.04
2019-02-17T05:41:15.958Z,4.04
2019-02-17T05:42:15.943Z,4.04
2019-02-17T05:43:15.971Z,4.06
2019-02-17T05:44:15.930Z,4.06
2019-02-17T05:45:15.913Z,4.00
2019-02-17T05:46:15.931Z,3.98
2019-02-17T05:47:15.893Z,4.04
2019-02-17T05:48:15.917Z,4.08
2019-02-17T05:49:15.867Z,3.97
2019-02-17T05:50:15.856Z,4.07
2019-02-17T05:51:15.846Z,3.97
2019-02-17T05:52:15.838Z,4.00
2019-02-17T05:53:15.863Z,4.04
2019-02-17T05:54:15.815Z,4.03
2019-02-17T05:55:15.811Z,3.97
2019-02-17T05:56:15.806Z,4.00
2019-02-17T05:57:15.833Z,3.89
2019-02-17T05:58:15.778Z,3.96
2019-02-17T05:59:15.768Z,3.88
2019-02-17T06:00:15.756Z,3.98
2019-02-17T06:01:15.737Z,3.83
2019-02-17T06:02:15.741Z,3.89
2019-02-17T06:03:15.757Z,3.94
2019-02-17T06:04:15.710Z,3.89
2019-02-17T06:05:15.700Z,3.96
2019-02-17T06:06:15.686Z,3.90
2019-02-17T06:07:15.697Z,3.86
2019-02-17T06:08:15.666Z,3.89
2019-02-17T06:09:15.653Z,3.82
2019-02-17T06:10:15.646Z,3.88
2019-02-17T06:11:15.637Z,3.94
2019-02-17T06:12:15.706Z,4.00
2019-02-17T06:13:15.644Z,3.83
2019-02-17T06:14:15.598Z,3.83
2019-02-17T06:15:15.586Z,3.79
2019-02-17T06:16:15.581Z,3.82
2019-02-17T06:17:15.577Z,3.82
2019-02-17T06:18:15.635Z,3.88
2019-02-17T06:19:17.679Z,3.88
2019-02-17T06:20:15.536Z,3.83
2019-02-17T06:21:15.531Z,3.78
2019-02-17T06:22:15.523Z,3.78
2019-02-17T06:23:15.499Z,3.79
2019-02-17T06:24:15.502Z,3.79
2019-02-17T06:25:15.490Z,3.88
2019-02-17T06:26:15.468Z,3.88
2019-02-17T06:27:15.462Z,3.83
2019-02-17T06:28:15.446Z,3.86
2019-02-17T06:29:15.457Z,3.82
2019-02-17T06:30:15.424Z,3.82
2019-02-17T06:31:15.420Z,3.83
2019-02-17T06:32:15.405Z,3.82
2019-02-17T06:33:15.391Z,3.85
2019-02-17T06:34:15.436Z,3.92
2019-02-17T06:35:15.370Z,3.88
2019-02-17T06:36:15.362Z,4.01
2019-02-17T06:37:15.346Z,3.94
2019-02-17T06:38:15.336Z,3.88
2019-02-17T06:39:15.325Z,3.94
2019-02-17T06:40:15.364Z,3.90
2019-02-17T06:41:15.310Z,3.86
2019-02-17T06:42:15.294Z,3.88
2019-02-17T06:43:15.284Z,3.97
2019-02-17T06:44:15.299Z,3.92
2019-02-17T06:45:15.298Z,3.94
2019-02-17T06:46:15.253Z,3.94
2019-02-17T06:47:15.246Z,3.96
2019-02-17T06:48:15.230Z,3.98
2019-02-17T06:49:15.224Z,3.97
2019-02-17T06:50:15.224Z,4.01
2019-02-17T06:51:15.211Z,3.97
2019-02-17T06:52:15.193Z,4.04
2019-02-17T06:53:15.181Z,4.01
2019-02-17T06:54:15.170Z,4.10
2019-02-17T06:55:15.219Z,4.10
2019-02-17T06:56:15.167Z,4.18
2019-02-17T06:57:15.146Z,4.08
2019-02-17T06:58:15.129Z,4.10
2019-02-17T06:59:15.117Z,4.18
2019-02-17T07:00:15.099Z,4.08
2019-02-17T07:01:24.332Z,4.08
2019-02-17T07:02:16.127Z,4.15
2019-02-17T07:03:15.067Z,4.14
2019-02-17T07:04:15.070Z,4.18
2019-02-17T07:05:15.072Z,4.14
2019-02-17T07:06:15.035Z,4.10
2019-02-17T07:07:15.046Z,4.07
2019-02-17T07:08:15.050Z,4.18
2019-02-17T07:09:15.009Z,4.24
2019-02-17T07:10:15.000Z,4.19
2019-02-17T07:11:15.007Z,4.21
2019-02-17T07:12:15.002Z,4.25
2019-02-17T07:13:15.003Z,4.32
2019-02-17T07:14:14.954Z,4.25
2019-02-17T07:15:14.940Z,4.24
2019-02-17T07:16:14.926Z,4.32
2019-02-17T07:17:14.917Z,4.33
2019-02-17T07:18:14.982Z,4.39
2019-02-17T07:19:14.932Z,4.33
2019-02-17T07:20:14.889Z,4.37
2019-02-17T07:21:14.872Z,4.44
2019-02-17T07:22:14.861Z,4.54
2019-02-17T07:23:15.404Z,4.59
2019-02-17T07:24:14.878Z,4.59
2019-02-17T07:25:14.834Z,4.72
2019-02-17T07:26:17.048Z,4.64
2019-02-17T07:27:14.815Z,4.62
2019-02-17T07:28:14.801Z,4.75
2019-02-17T07:29:16.779Z,4.73
2019-02-17T07:30:14.782Z,4.79
2019-02-17T07:31:14.769Z,4.73
2019-02-17T07:32:14.758Z,4.79
2019-02-17T07:33:14.743Z,4.77
2019-02-17T07:34:14.770Z,4.79
2019-02-17T07:35:14.762Z,4.89
2019-02-17T07:36:14.720Z,4.83
2019-02-17T07:37:14.705Z,4.91
2019-02-17T07:38:14.693Z,4.80
2019-02-17T07:39:14.682Z,4.84
2019-02-17T07:40:14.674Z,4.84
2019-02-17T07:41:14.693Z,4.91
2019-02-17T07:42:14.646Z,4.96
2019-02-17T07:43:14.638Z,4.88
2019-02-17T07:44:14.631Z,4.96
2019-02-17T07:45:14.640Z,4.91
2019-02-17T07:46:14.602Z,4.91
2019-02-17T07:47:14.596Z,4.86
2019-02-17T07:48:14.584Z,4.94
2019-02-17T07:49:14.568Z,5.01
2019-02-17T07:50:14.586Z,5.05
2019-02-17T07:51:14.551Z,5.01
2019-02-17T07:52:14.543Z,5.14
2019-02-17T07:53:14.536Z,5.04
2019-02-17T07:54:14.516Z,5.14
2019-02-17T07:55:14.552Z,5.14
2019-02-17T07:56:14.491Z,5.12
2019-02-17T07:57:14.517Z,5.19
2019-02-17T07:58:14.472Z,5.13
2019-02-17T07:59:14.463Z,5.25
2019-02-17T08:00:14.449Z,5.23
2019-02-17T08:01:14.441Z,5.28
2019-02-17T08:02:14.445Z,5.27
2019-02-17T08:03:14.421Z,5.40
2019-02-17T08:04:14.402Z,5.38
2019-02-17T08:05:14.392Z,5.38
2019-02-17T08:06:14.387Z,5.41
2019-02-17T08:07:14.406Z,5.43
2019-02-17T08:08:14.373Z,5.49
2019-02-17T08:09:14.354Z,5.53
2019-02-17T08:10:14.335Z,5.55
2019-02-17T08:11:14.331Z,5.63
2019-02-17T08:12:14.326Z,5.57
2019-02-17T08:13:14.356Z,5.64
2019-02-17T08:14:14.316Z,5.67
2019-02-17T08:15:14.284Z,5.77
2019-02-17T08:16:14.312Z,5.81
2019-02-17T08:17:14.259Z,5.83
2019-02-17T08:18:14.250Z,5.85
2019-02-17T08:19:14.240Z,5.92
2019-02-17T08:20:14.241Z,5.86
2019-02-17T08:21:14.217Z,6.01
2019-02-17T08:22:14.235Z,5.98
2019-02-17T08:23:14.201Z,6.06
2019-02-17T08:24:14.222Z,6.11
2019-02-17T08:25:21.539Z,6.18
2019-02-17T08:26:15.161Z,6.18
2019-02-17T08:27:14.173Z,6.21
2019-02-17T08:28:14.157Z,6.21
2019-02-17T08:29:14.135Z,6.38
2019-02-17T08:30:14.156Z,6.35
2019-02-17T08:31:14.131Z,6.43
2019-02-17T08:32:14.101Z,6.35
2019-02-17T08:33:14.090Z,6.41
2019-02-17T08:34:14.082Z,6.50
2019-02-17T08:35:14.118Z,6.50
2019-02-17T08:36:14.056Z,6.50
2019-02-17T08:37:14.043Z,6.65
2019-02-17T08:38:14.035Z,6.66
2019-02-17T08:39:14.025Z,6.71
2019-02-17T08:40:14.010Z,6.80
2019-02-17T08:41:14.029Z,6.86
2019-02-17T08:42:13.987Z,6.87
2019-02-17T08:43:14.027Z,6.87
2019-02-17T08:44:13.967Z,6.91
2019-02-17T08:45:13.963Z,7.05
2019-02-17T08:46:13.943Z,7.12
2019-02-17T08:47:13.941Z,7.13
2019-02-17T08:48:13.924Z,7.31
2019-02-17T08:49:13.957Z,7.29
2019-02-17T08:50:13.905Z,7.41
2019-02-17T08:51:13.897Z,7.38
2019-02-17T08:52:13.879Z,7.56
2019-02-17T08:53:13.875Z,7.66
2019-02-17T08:54:13.856Z,7.78
2019-02-17T08:55:13.914Z,7.96
2019-02-17T08:56:13.839Z,8.02
2019-02-17T08:57:13.823Z,8.15
2019-02-17T08:58:13.820Z,8.28
2019-02-17T08:59:13.802Z,8.42
2019-02-17T09:00:13.791Z,8.57
2019-02-17T09:01:13.795Z,8.81
2019-02-17T09:02:13.784Z,8.93
2019-02-17T09:03:13.764Z,9.04
2019-02-17T09:04:13.747Z,9.10
2019-02-17T09:05:13.752Z,9.25
2019-02-17T09:06:13.745Z,9.31
2019-02-17T09:07:13.720Z,9.39
2019-02-17T09:08:13.704Z,9.56
2019-02-17T09:09:13.695Z,9.56
2019-02-17T09:10:13.682Z,9.78
2019-02-17T09:11:13.705Z,9.88
2019-02-17T09:12:13.662Z,10.00
2019-02-17T09:13:13.649Z,10.14
2019-02-17T09:14:13.650Z,10.21
2019-02-17T09:15:13.631Z,10.25
2019-02-17T09:16:13.618Z,10.32
2019-02-17T09:17:13.627Z,10.36
2019-02-17T09:18:13.600Z,10.53
2019-02-17T09:19:13.586Z,10.63
2019-02-17T09:20:13.572Z,10.71
2019-02-17T09:21:13.561Z,10.80
2019-02-17T09:22:13.559Z,10.89
2019-02-17T09:23:13.540Z,10.94
2019-02-17T09:24:13.529Z,10.99
2019-02-17T09:25:13.516Z,11.13
2019-02-17T09:26:13.510Z,11.11
2019-02-17T09:27:13.509Z,11.19
2019-02-17T09:28:13.482Z,11.25
2019-02-17T09:29:13.485Z,11.34
2019-02-17T09:30:13.465Z,11.41
2019-02-17T09:31:13.451Z,11.31
2019-02-17T09:32:16.323Z,11.50
2019-02-17T09:33:13.431Z,11.41
2019-02-17T09:34:13.440Z,11.47
2019-02-17T09:35:13.411Z,11.62
2019-02-17T09:36:13.400Z,11.59
2019-02-17T09:37:13.385Z,11.56
2019-02-17T09:38:13.390Z,11.47
2019-02-17T09:39:13.369Z,11.59
2019-02-17T09:40:13.351Z,11.54
2019-02-17T09:41:13.345Z,11.59
2019-02-17T09:42:13.327Z,11.70
2019-02-17T09:43:13.332Z,11.83
2019-02-17T09:44:13.312Z,11.97
2019-02-17T09:45:13.341Z,11.94
2019-02-17T09:46:13.290Z,12.01
2019-02-17T09:47:13.274Z,11.93
2019-02-17T09:48:13.264Z,11.85
2019-02-17T09:49:13.253Z,11.83
2019-02-17T09:50:13.241Z,11.67
2019-02-17T09:51:13.248Z,11.72
2019-02-17T09:52:13.224Z,11.77
2019-02-17T09:53:13.218Z,11.80
2019-02-17T09:54:13.205Z,11.90
2019-02-17T09:55:14.180Z,12.06
2019-02-17T09:56:15.683Z,12.21
2019-02-17T09:57:13.169Z,12.33
2019-02-17T09:58:13.254Z,12.41
2019-02-17T09:59:19.685Z,12.52
2019-02-17T10:00:13.136Z,12.69
2019-02-17T10:01:13.127Z,12.84
2019-02-17T10:02:13.117Z,12.89
2019-02-17T10:03:14.686Z,13.00
2019-02-17T10:04:13.088Z,13.03
2019-02-17T10:05:13.082Z,13.06
2019-02-17T10:06:13.066Z,13.09
2019-02-17T10:07:13.056Z,13.15
2019-02-17T10:08:13.055Z,13.24
2019-02-17T10:09:13.048Z,13.37
2019-02-17T10:10:13.027Z,13.56
2019-02-17T10:11:13.019Z,13.79
2019-02-17T10:12:13.006Z,13.89
2019-02-17T10:13:12.988Z,13.89
2019-02-17T10:14:13.118Z,14.14
2019-02-17T10:15:12.968Z,14.12
2019-02-17T10:16:12.960Z,14.14
2019-02-17T10:17:12.962Z,14.31
2019-02-17T10:18:12.936Z,14.49
2019-02-17T10:19:12.929Z,14.54
2019-02-17T10:20:12.956Z,14.62
2019-02-17T10:21:12.908Z,14.64
2019-02-17T10:22:12.898Z,14.49
2019-02-17T10:23:12.882Z,14.53
2019-02-17T10:24:12.874Z,14.52
2019-02-17T10:25:12.857Z,14.44
2019-02-17T10:26:12.863Z,14.47
2019-02-17T10:27:12.837Z,14.61
2019-02-17T10:28:12.830Z,14.64
2019-02-17T10:29:12.914Z,14.52
2019-02-17T10:30:12.808Z,14.54
2019-02-17T10:31:12.796Z,14.57
2019-02-17T10:32:12.781Z,14.83
2019-02-17T10:33:12.776Z,14.99
2019-02-17T10:34:12.761Z,15.09
2019-02-17T10:35:12.783Z,14.95
2019-02-17T10:36:12.741Z,14.93
2019-02-17T10:37:12.728Z,15.01
2019-02-17T10:38:12.716Z,14.98
2019-02-17T10:39:12.722Z,15.11
2019-02-17T10:40:12.697Z,15.19
2019-02-17T10:41:12.692Z,15.24
2019-02-17T10:42:12.677Z,15.42
2019-02-17T10:43:12.668Z,15.63
2019-02-17T10:44:12.663Z,15.72
2019-02-17T10:45:12.646Z,15.81
2019-02-17T10:46:12.636Z,15.92
2019-02-17T10:47:12.616Z,16.12
2019-02-17T10:48:12.604Z,16.31
2019-02-17T10:49:12.601Z,16.45
2019-02-17T10:50:12.581Z,16.62
2019-02-17T10:51:12.613Z,16.67
2019-02-17T10:52:12.571Z,16.49
2019-02-17T10:53:12.547Z,16.55
2019-02-17T10:54:12.538Z,16.62
2019-02-17T10:55:12.532Z,16.60
2019-02-17T10:56:12.530Z,16.63
2019-02-17T10:57:12.546Z,16.73
2019-02-17T10:58:12.537Z,16.85
2019-02-17T10:59:12.489Z,16.71
2019-02-17T11:00:12.482Z,16.77
2019-02-17T11:01:12.461Z,16.49
2019-02-17T11:02:12.450Z,16.58
2019-02-17T11:03:12.579Z,16.83
2019-02-17T11:04:12.438Z,16.99
2019-02-17T11:05:12.422Z,16.98
2019-02-17T11:06:12.410Z,17.10
2019-02-17T11:07:12.400Z,17.30
2019-02-17T11:08:12.389Z,17.41
2019-02-17T11:09:12.383Z,17.46
2019-02-17T11:10:12.365Z,17.69
2019-02-17T11:11:12.351Z,17.74
2019-02-17T11:12:12.346Z,17.87
2019-02-17T11:13:12.383Z,18.00
2019-02-17T11:14:12.331Z,18.33
2019-02-17T11:15:12.313Z,18.55
2019-02-17T11:16:12.307Z,18.44
2019-02-17T11:17:12.287Z,18.55
2019-02-17T11:18:12.293Z,18.77
2019-02-17T11:19:12.264Z,18.79
2019-02-17T11:20:12.258Z,18.39
2019-02-17T11:21:12.285Z,18.22
2019-02-17T11:22:12.236Z,18.19
2019-02-17T11:23:12.227Z,18.12
2019-02-17T11:24:12.211Z,18.02
2019-02-17T11:25:12.204Z,17.55
2019-02-17T11:26:12.189Z,17.53
2019-02-17T11:27:12.191Z,17.48
2019-02-17T11:28:12.182Z,17.47
2019-02-17T11:29:12.156Z,17.59
2019-02-17T11:30:12.147Z,17.69
2019-02-17T11:31:12.140Z,17.69
2019-02-17T11:32:12.135Z,17.92
2019-02-17T11:33:12.112Z,17.95
2019-02-17T11:34:12.115Z,17.97
2019-02-17T11:35:12.091Z,18.22
2019-02-17T11:36:12.078Z,18.55
2019-02-17T11:37:12.069Z,18.82
2019-02-17T11:38:12.066Z,18.98
2019-02-17T11:39:12.053Z,18.92
2019-02-17T11:40:12.044Z,18.61
2019-02-17T11:41:12.728Z,18.47
2019-02-17T11:42:12.022Z,18.39
2019-02-17T11:43:12.030Z,18.43
2019-02-17T11:44:11.997Z,18.67
2019-02-17T11:45:11.989Z,18.90
2019-02-17T11:46:11.974Z,19.11
2019-02-17T11:47:11.962Z,19.06
2019-02-17T11:48:11.953Z,18.90
2019-02-17T11:49:11.946Z,18.84
2019-02-17T11:50:11.936Z,19.05
2019-02-17T11:51:11.918Z,19.10
2019-02-17T11:52:11.909Z,19.23
2019-02-17T11:53:11.898Z,19.39
2019-02-17T11:54:11.886Z,19.42
2019-02-17T11:55:11.883Z,19.06
2019-02-17T11:56:11.866Z,18.92
2019-02-17T11:57:11.850Z,19.14
2019-02-17T11:58:11.836Z,18.92
2019-02-17T11:59:11.832Z,19.14
2019-02-17T12:00:11.854Z,19.39
2019-02-17T12:01:11.810Z,19.73
2019-02-17T12:02:11.812Z,20.06
2019-02-17T12:03:11.789Z,20.03
2019-02-17T12:04:11.790Z,19.79
2019-02-17T12:05:11.763Z,20.10
2019-02-17T12:06:11.761Z,20.20
2019-02-17T12:07:11.749Z,20.39
2019-02-17T12:08:11.736Z,20.58
2019-02-17T12:09:11.725Z,20.62
2019-02-17T12:10:11.717Z,20.47
2019-02-17T12:11:11.734Z,20.54
2019-02-17T12:12:13.657Z,19.94
2019-02-17T12:13:11.682Z,19.69
2019-02-17T12:14:11.667Z,19.06
2019-02-17T12:15:11.666Z,19.01
2019-02-17T12:16:11.649Z,19.20
2019-02-17T12:17:11.645Z,19.21
2019-02-17T12:18:11.622Z,18.87
2019-02-17T12:19:11.617Z,18.90
2019-02-17T12:20:11.616Z,18.91
2019-02-17T12:21:11.596Z,18.91
2019-02-17T12:22:11.589Z,19.06
2019-02-17T12:23:11.574Z,19.24
2019-02-17T12:24:11.560Z,19.29
2019-02-17T12:25:11.554Z,19.32
2019-02-17T12:26:11.553Z,19.38
2019-02-17T12:27:11.531Z,19.29
2019-02-17T12:28:11.525Z,19.21
2019-02-17T12:29:11.509Z,19.11
2019-02-17T12:30:11.500Z,19.10
2019-02-17T12:31:11.483Z,19.20
2019-02-17T12:32:11.479Z,19.47
2019-02-17T12:33:19.335Z,19.35
2019-02-17T12:34:12.453Z,19.25
2019-02-17T12:35:11.440Z,19.14
2019-02-17T12:36:11.428Z,18.91
2019-02-17T12:37:11.433Z,18.76
2019-02-17T12:38:11.408Z,18.40
2019-02-17T12:39:11.397Z,18.36
2019-02-17T12:40:11.389Z,18.25
2019-02-17T12:41:11.385Z,18.27
2019-02-17T12:42:11.374Z,18.22
2019-02-17T12:43:11.357Z,18.31
2019-02-17T12:44:11.355Z,18.57
2019-02-17T12:45:11.332Z,18.55
2019-02-17T12:46:11.321Z,18.42
2019-02-17T12:47:11.340Z,18.37
2019-02-17T12:48:11.346Z,18.37
2019-02-17T12:49:11.294Z,18.49
2019-02-17T12:50:11.282Z,18.74
2019-02-17T12:51:11.269Z,18.91
2019-02-17T12:52:11.262Z,18.91
2019-02-17T12:53:11.263Z,18.76
2019-02-17T12:54:11.231Z,18.57
2019-02-17T12:55:11.231Z,18.54
2019-02-17T12:56:11.213Z,18.44
2019-02-17T12:57:11.203Z,18.43
2019-02-17T12:58:11.199Z,18.39
2019-02-17T12:59:11.181Z,18.34
2019-02-17T13:00:11.164Z,18.27
2019-02-17T13:01:13.407Z,18.00
2019-02-17T13:02:11.150Z,17.99
2019-02-17T13:03:11.130Z,18.12
2019-02-17T13:04:11.130Z,18.29
2019-02-17T13:05:11.117Z,18.47
2019-02-17T13:06:11.127Z,18.39
2019-02-17T13:07:11.163Z,18.34
2019-02-17T13:08:11.082Z,18.33
2019-02-17T13:09:11.077Z,18.29
2019-02-17T13:10:11.055Z,18.42